createdAt,value
2022-08-20T00:00:42.091Z,1.20
2022-08-20T00:04:07.356Z,1.30
2022-08-20T00:07:31.008Z,1.30
2022-08-20T00:10:57.180Z,1.37
2022-08-20T00:14:20.820Z,1.30
2022-08-20T00:17:44.270Z,1.30
2022-08-20T00:21:18.826Z,1.00
2022-08-20T00:24:43.142Z,1.27
2022-08-20T00:28:07.644Z,1.20
2022-08-20T00:31:31.629Z,1.17
2022-08-20T00:34:55.099Z,1.23
2022-08-20T00:38:20.539Z,1.10
2022-08-20T00:41:43.998Z,0.90
2022-08-20T00:45:08.251Z,0.90
2022-08-20T00:48:38.391Z,0.87
2022-08-20T00:52:08.715Z,0.90
2022-08-20T00:55:34.907Z,0.83
2022-08-20T00:58:58.633Z,0.90
2022-08-20T01:02:27.514Z,1.00
2022-08-20T01:05:53.547Z,0.80
2022-08-20T01:09:17.335Z,1.00
2022-08-20T01:13:08.397Z,0.90
2022-08-20T01:16:33.914Z,0.80
2022-08-20T01:20:03.978Z,1.13
2022-08-20T01:23:43.263Z,0.90
2022-08-20T01:27:09.701Z,0.90
2022-08-20T01:30:34.849Z,0.90
2022-08-20T01:34:01.792Z,0.90
2022-08-20T01:37:25.326Z,0.80
2022-08-20T01:41:28.493Z,0.90
2022-08-20T01:44:53.894Z,0.87
2022-08-20T01:48:19.963Z,0.97
2022-08-20T01:51:44.436Z,0.93
2022-08-20T01:55:11.115Z,1.00
2022-08-20T01:58:38.997Z,0.97
2022-08-20T02:02:07.048Z,1.10
2022-08-20T02:05:31.028Z,0.90
2022-08-20T02:08:57.836Z,0.90
2022-08-20T02:12:21.383Z,0.80
2022-08-20T02:15:45.584Z,0.80
2022-08-20T02:19:16.112Z,0.90
2022-08-20T02:22:50.379Z,0.80
2022-08-20T02:26:14.069Z,0.80
2022-08-20T02:29:37.711Z,0.80
2022-08-20T02:33:02.468Z,0.97
2022-08-20T02:36:28.284Z,1.20
2022-08-20T02:39:51.914Z,1.00
2022-08-20T02:43:18.260Z,1.37
2022-08-20T02:46:41.755Z,0.97
2022-08-20T02:50:08.112Z,1.10
2022-08-20T02:53:39.465Z,1.10
2022-08-20T02:57:04.261Z,0.90
2022-08-20T03:00:37.883Z,0.90
2022-08-20T03:04:02.906Z,0.90
2022-08-20T03:07:27.182Z,0.93
2022-08-20T03:10:53.254Z,1.00
2022-08-20T03:14:16.910Z,0.90
2022-08-20T03:17:40.447Z,1.00
2022-08-20T03:21:06.663Z,0.80
2022-08-20T03:24:33.402Z,0.87
2022-08-20T03:27:58.895Z,0.90
2022-08-20T03:31:23.464Z,1.00
2022-08-20T03:34:46.943Z,1.20
2022-08-20T03:38:14.358Z,1.17
2022-08-20T03:41:39.183Z,1.00
2022-08-20T03:45:04.503Z,1.13
2022-08-20T03:48:28.450Z,1.27
2022-08-20T03:51:57.440Z,1.10
2022-08-20T03:55:23.683Z,1.00
2022-08-20T03:58:47.640Z,0.83
2022-08-20T04:02:13.065Z,1.00
2022-08-20T04:05:40.707Z,1.00
2022-08-20T04:09:04.239Z,0.80
2022-08-20T04:12:27.913Z,0.83
2022-08-20T04:15:55.196Z,0.80
2022-08-20T04:19:21.527Z,1.10
2022-08-20T04:22:58.510Z,1.13
2022-08-20T04:26:23.151Z,0.93
2022-08-20T04:29:46.678Z,1.00
2022-08-20T04:33:11.118Z,0.90
2022-08-20T04:36:36.220Z,1.00
2022-08-20T04:40:17.473Z,1.10
2022-08-20T04:43:40.992Z,1.20
2022-08-20T04:47:04.606Z,1.17
2022-08-20T04:50:28.339Z,1.30
2022-08-20T04:53:54.641Z,1.23
2022-08-20T04:57:18.792Z,1.10
2022-08-20T05:00:42.728Z,1.30
2022-08-20T05:04:06.215Z,1.17
2022-08-20T05:07:29.806Z,1.40
2022-08-20T05:11:30.169Z,1.37
2022-08-20T05:14:41.308Z,1.30
2022-08-20T05:18:07.764Z,1.23
2022-08-20T05:21:31.269Z,1.17
2022-08-20T05:24:56.769Z,1.20
2022-08-20T05:28:26.334Z,1.20
2022-08-20T05:31:50.108Z,1.30
2022-08-20T05:35:13.608Z,1.30
2022-08-20T05:38:38.085Z,1.20
2022-08-20T05:42:01.884Z,1.13
2022-08-20T05:45:26.795Z,1.30
2022-08-20T05:48:50.308Z,1.30
2022-08-20T05:52:13.955Z,1.10
2022-08-20T05:55:37.935Z,1.23
2022-08-20T05:59:04.305Z,1.30
2022-08-20T06:02:47.201Z,1.17
2022-08-20T06:06:18.307Z,1.50
2022-08-20T06:09:55.703Z,1.40
2022-08-20T06:13:19.222Z,1.20
2022-08-20T06:16:56.323Z,1.33
2022-08-20T06:20:23.951Z,1.40
2022-08-20T06:23:57.051Z,1.30
2022-08-20T06:27:23.086Z,1.40
2022-08-20T06:30:46.935Z,1.60
2022-08-20T06:34:10.719Z,1.47
2022-08-20T06:37:38.509Z,1.40
2022-08-20T06:41:02.880Z,1.80
2022-08-20T06:44:29.038Z,1.90
2022-08-20T06:47:55.912Z,1.60
2022-08-20T06:51:20.238Z,1.90
2022-08-20T06:54:45.245Z,1.50
2022-08-20T06:58:35.602Z,1.50
2022-08-20T07:01:56.478Z,1.80
2022-08-20T07:05:20.266Z,1.50
2022-08-20T07:08:44.313Z,1.43
2022-08-20T07:12:10.553Z,1.60
2022-08-20T07:15:34.672Z,1.50
2022-08-20T07:18:58.234Z,1.53
2022-08-20T07:22:21.795Z,1.60
2022-08-20T07:25:46.482Z,1.73
2022-08-20T07:29:11.763Z,1.63
2022-08-20T07:32:35.726Z,1.90
2022-08-20T07:36:03.979Z,1.37
2022-08-20T07:39:28.548Z,1.53
2022-08-20T07:42:55.840Z,1.70
2022-08-20T07:46:22.123Z,1.67
2022-08-20T07:49:45.922Z,1.60
2022-08-20T07:53:11.931Z,1.70
2022-08-20T07:56:35.747Z,1.50
2022-08-20T08:00:00.921Z,1.43
2022-08-20T08:03:39.687Z,1.40
2022-08-20T08:07:12.946Z,1.40
2022-08-20T08:10:37.626Z,1.50
2022-08-20T08:14:02.253Z,1.57
2022-08-20T08:17:26.123Z,1.63
2022-08-20T08:20:53.093Z,1.80
2022-08-20T08:24:21.104Z,1.53
2022-08-20T08:27:48.971Z,1.40
2022-08-20T08:31:12.740Z,1.40
2022-08-20T08:34:37.930Z,1.50
2022-08-20T08:38:02.810Z,1.43
2022-08-20T08:41:33.849Z,1.53
2022-08-20T08:44:57.951Z,1.27
2022-08-20T08:48:21.659Z,1.40
2022-08-20T08:51:50.946Z,1.33
2022-08-20T08:55:21.923Z,1.30
2022-08-20T08:58:45.983Z,1.40
2022-08-20T09:02:09.710Z,1.53
2022-08-20T09:05:43.680Z,1.30
2022-08-20T09:09:14.547Z,1.53
2022-08-20T09:12:39.414Z,1.40
2022-08-20T09:16:05.223Z,1.40
2022-08-20T09:19:28.882Z,1.70
2022-08-20T09:22:52.411Z,1.50
2022-08-20T09:26:15.898Z,1.33
2022-08-20T09:29:41.218Z,1.37
2022-08-20T09:33:04.998Z,1.50
2022-08-20T09:36:32.027Z,1.60
2022-08-20T09:39:56.938Z,1.60
2022-08-20T09:43:20.584Z,1.23
2022-08-20T09:46:45.475Z,1.37
2022-08-20T09:50:10.685Z,1.50
2022-08-20T09:53:34.453Z,1.20
2022-08-20T09:56:59.547Z,1.13
2022-08-20T10:00:23.334Z,1.40
2022-08-20T10:03:50.844Z,1.00
2022-08-20T10:07:16.040Z,1.23
2022-08-20T10:10:40.151Z,1.20
2022-08-20T10:14:03.780Z,1.00
2022-08-20T10:17:27.341Z,1.17
2022-08-20T10:20:52.264Z,1.10
2022-08-20T10:24:15.730Z,1.00
2022-08-20T10:27:40.441Z,1.13
2022-08-20T10:31:06.394Z,1.23
2022-08-20T10:34:31.530Z,0.90
2022-08-20T10:37:56.583Z,0.90
2022-08-20T10:41:21.340Z,0.90
2022-08-20T10:44:45.033Z,0.80
2022-08-20T10:48:08.518Z,0.70
2022-08-20T10:51:33.171Z,0.77
2022-08-20T10:54:58.202Z,0.70
2022-08-20T10:58:23.823Z,0.80
2022-08-20T11:01:47.650Z,0.90
2022-08-20T11:05:11.310Z,0.83
2022-08-20T11:08:36.277Z,0.97
2022-08-20T11:12:01.200Z,0.70
2022-08-20T11:15:25.402Z,1.00
2022-08-20T11:18:48.821Z,0.80
2022-08-20T11:22:12.684Z,0.90
2022-08-20T11:25:36.221Z,0.70
2022-08-20T11:29:01.021Z,0.67
2022-08-20T11:32:25.416Z,0.80
2022-08-20T11:35:50.088Z,0.80
2022-08-20T11:39:13.888Z,0.73
2022-08-20T11:42:53.213Z,0.90
2022-08-20T11:46:26.547Z,0.90
2022-08-20T11:49:59.607Z,0.73
2022-08-20T11:53:23.123Z,0.80
2022-08-20T11:56:46.718Z,0.80
2022-08-20T12:00:15.703Z,0.73
2022-08-20T12:03:40.682Z,0.70
2022-08-20T12:07:11.863Z,0.80
2022-08-20T12:10:36.115Z,0.70
2022-08-20T12:13:59.688Z,0.70
2022-08-20T12:17:27.899Z,0.80
2022-08-20T12:20:52.790Z,0.70
2022-08-20T12:24:16.311Z,0.80
2022-08-20T12:27:40.511Z,0.70
2022-08-20T12:31:04.086Z,0.70
2022-08-20T12:34:27.599Z,0.73
2022-08-20T12:37:53.378Z,0.70
2022-08-20T12:41:16.809Z,0.83
2022-08-20T12:44:40.636Z,0.70
2022-08-20T12:48:07.924Z,0.70
2022-08-20T12:51:31.444Z,0.60
2022-08-20T12:54:57.843Z,0.80
2022-08-20T12:58:21.377Z,0.80
2022-08-20T13:01:45.226Z,0.63
2022-08-20T13:05:11.226Z,0.80
2022-08-20T13:08:34.750Z,0.80
2022-08-20T13:11:59.645Z,0.70
2022-08-20T13:15:26.857Z,0.80
2022-08-20T13:18:50.256Z,1.00
2022-08-20T13:22:14.489Z,0.80
2022-08-20T13:25:38.032Z,0.70
2022-08-20T13:29:02.889Z,0.90
2022-08-20T13:32:26.826Z,0.83
2022-08-20T13:35:50.353Z,0.80
2022-08-20T13:39:13.983Z,0.90
2022-08-20T13:42:38.347Z,1.00
2022-08-20T13:46:03.370Z,0.80
2022-08-20T13:49:26.939Z,0.83
2022-08-20T13:52:57.647Z,1.10
2022-08-20T13:56:21.294Z,1.00
2022-08-20T13:59:48.851Z,0.90
2022-08-20T14:03:14.017Z,1.00
2022-08-20T14:06:43.669Z,0.80
2022-08-20T14:10:11.938Z,0.90
2022-08-20T14:13:35.447Z,0.80
2022-08-20T14:16:59.058Z,0.70
2022-08-20T14:20:29.164Z,0.70
2022-08-20T14:23:52.954Z,0.90
2022-08-20T14:27:21.125Z,0.70
2022-08-20T14:30:44.971Z,0.73
2022-08-20T14:34:08.444Z,0.80
2022-08-20T14:37:37.917Z,0.73
2022-08-20T14:41:01.453Z,0.70
2022-08-20T14:44:24.927Z,0.80
2022-08-20T14:47:53.775Z,0.67
2022-08-20T14:51:17.652Z,0.90
2022-08-20T14:54:43.692Z,0.80
2022-08-20T14:58:12.282Z,0.90
2022-08-20T15:01:35.804Z,1.13
2022-08-20T15:04:59.378Z,0.80
2022-08-20T15:08:28.799Z,1.00
2022-08-20T15:11:53.865Z,0.90
2022-08-20T15:15:19.421Z,0.70
2022-08-20T15:18:43.916Z,0.70
2022-08-20T15:22:07.421Z,0.77
2022-08-20T15:25:36.733Z,0.80
2022-08-20T15:29:02.977Z,0.80
2022-08-20T15:32:26.662Z,1.03
2022-08-20T15:35:50.164Z,0.90
2022-08-20T15:39:13.697Z,0.90
2022-08-20T15:42:37.896Z,0.90
2022-08-20T15:46:06.799Z,0.90
2022-08-20T15:49:31.087Z,0.90
2022-08-20T15:53:02.238Z,1.00
2022-08-20T15:56:52.210Z,0.90
2022-08-20T16:00:22.270Z,0.97
2022-08-20T16:04:35.766Z,0.83
2022-08-20T16:08:14.574Z,1.10
2022-08-20T16:11:53.380Z,0.90
2022-08-20T16:15:25.018Z,1.00
2022-08-20T16:18:53.399Z,0.80
2022-08-20T16:22:20.332Z,0.93
2022-08-20T16:26:05.545Z,1.00
2022-08-20T16:29:45.771Z,0.83
2022-08-20T16:33:17.589Z,0.93
2022-08-20T16:36:57.007Z,0.87
2022-08-20T16:40:35.493Z,0.90
2022-08-20T16:44:07.717Z,0.90
2022-08-20T16:47:35.881Z,0.90
2022-08-20T16:51:06.619Z,0.80
2022-08-20T16:54:31.136Z,1.07
2022-08-20T16:57:56.422Z,1.57
2022-08-20T17:01:27.551Z,1.00
2022-08-20T17:04:59.307Z,1.00
2022-08-20T17:08:29.109Z,0.90
2022-08-20T17:11:52.889Z,1.00
2022-08-20T17:15:26.755Z,1.00
2022-08-20T17:18:52.578Z,1.00
2022-08-20T17:22:21.030Z,0.90
2022-08-20T17:25:46.305Z,0.90
2022-08-20T17:29:17.359Z,0.93
2022-08-20T17:33:02.728Z,1.00
2022-08-20T17:36:26.673Z,1.07
2022-08-20T17:39:54.170Z,1.00
2022-08-20T17:43:28.091Z,1.10
2022-08-20T17:46:54.692Z,0.93
2022-08-20T17:50:29.520Z,1.30
2022-08-20T17:53:59.989Z,1.10
2022-08-20T17:57:36.779Z,1.20
2022-08-20T18:01:02.103Z,0.90
2022-08-20T18:04:25.579Z,0.97
2022-08-20T18:08:17.263Z,0.90
2022-08-20T18:11:49.219Z,1.07
2022-08-20T18:15:24.272Z,1.20
2022-08-20T18:18:57.504Z,1.00
2022-08-20T18:22:28.954Z,1.10
2022-08-20T18:26:01.611Z,1.00
2022-08-20T18:29:31.018Z,1.37
2022-08-20T18:33:07.126Z,1.20
2022-08-20T18:36:31.079Z,1.40
2022-08-20T18:40:10.014Z,1.10
2022-08-20T18:43:35.659Z,1.10
2022-08-20T18:47:03.783Z,1.30
2022-08-20T18:50:43.891Z,1.17
2022-08-20T18:54:07.806Z,0.97
2022-08-20T18:57:41.620Z,1.13
2022-08-20T19:01:14.414Z,1.00
2022-08-20T19:04:39.686Z,0.80
2022-08-20T19:08:05.978Z,0.90
2022-08-20T19:12:03.544Z,1.07
2022-08-20T19:15:28.511Z,1.00
2022-08-20T19:18:56.177Z,0.90
2022-08-20T19:22:22.151Z,0.90
2022-08-20T19:25:56.586Z,0.90
2022-08-20T19:29:27.815Z,1.13
2022-08-20T19:32:53.736Z,1.20
2022-08-20T19:36:28.101Z,1.10
2022-08-20T19:39:53.512Z,1.10
2022-08-20T19:43:21.379Z,1.20
2022-08-20T19:46:48.548Z,0.97
2022-08-20T19:50:22.766Z,1.10
2022-08-20T19:53:50.424Z,1.00
2022-08-20T19:57:15.407Z,1.07
2022-08-20T20:00:42.221Z,1.10
2022-08-20T20:04:08.474Z,1.30
2022-08-20T20:07:40.826Z,1.13
2022-08-20T20:11:06.860Z,0.80
2022-08-20T20:14:34.180Z,1.17
2022-08-20T20:17:59.531Z,1.07
2022-08-20T20:21:34.290Z,0.90
2022-08-20T20:25:08.562Z,1.03
2022-08-20T20:28:46.101Z,1.30
2022-08-20T20:32:20.446Z,1.20
2022-08-20T20:35:46.755Z,0.87
2022-08-20T20:39:27.241Z,0.90
2022-08-20T20:43:01.813Z,0.90
2022-08-20T20:46:28.760Z,0.90
2022-08-20T20:49:56.717Z,0.93
2022-08-20T20:53:47.506Z,0.80
2022-08-20T20:57:36.473Z,1.03
2022-08-20T21:01:02.554Z,0.90
2022-08-20T21:04:27.841Z,1.10
2022-08-20T21:07:55.832Z,0.90
2022-08-20T21:11:19.289Z,1.00
2022-08-20T21:14:44.970Z,1.00
2022-08-20T21:18:10.049Z,1.10
2022-08-20T21:21:37.029Z,1.00
2022-08-20T21:25:00.726Z,0.90
2022-08-20T21:28:24.348Z,0.90
2022-08-20T21:31:52.648Z,1.10
2022-08-20T21:35:17.362Z,0.83
2022-08-20T21:38:42.230Z,1.00
2022-08-20T21:42:28.395Z,0.90
2022-08-20T21:45:52.469Z,1.00
2022-08-20T21:49:16.292Z,1.17
2022-08-20T21:52:43.952Z,1.27
2022-08-20T21:56:24.885Z,1.20
2022-08-20T21:59:49.415Z,1.00
2022-08-20T22:03:14.188Z,1.10
2022-08-20T22:06:37.945Z,1.00
2022-08-20T22:10:01.485Z,0.83
2022-08-20T22:13:31.633Z,1.00
2022-08-20T22:16:55.446Z,0.80
2022-08-20T22:20:19.110Z,0.90
2022-08-20T22:23:43.192Z,1.03
2022-08-20T22:27:08.395Z,0.73
2022-08-20T22:30:33.502Z,1.10
2022-08-20T22:33:58.654Z,0.90
2022-08-20T22:37:32.755Z,0.90
2022-08-20T22:40:58.707Z,1.27
2022-08-20T22:44:22.180Z,1.00
2022-08-20T22:47:47.637Z,1.20
2022-08-20T22:51:20.100Z,1.13
2022-08-20T22:54:45.429Z,1.00
2022-08-20T22:58:09.416Z,1.00
2022-08-20T23:01:33.863Z,1.00
2022-08-20T23:04:59.354Z,1.07
2022-08-20T23:08:23.164Z,1.10
2022-08-20T23:11:51.428Z,1.10
2022-08-20T23:15:15.102Z,1.03
2022-08-20T23:18:38.705Z,1.20
2022-08-20T23:22:03.643Z,1.00
2022-08-20T23:25:27.463Z,1.40
2022-08-20T23:28:51.563Z,1.30
2022-08-20T23:32:15.439Z,1.07
2022-08-20T23:35:40.763Z,1.00
2022-08-20T23:39:07.445Z,0.90
2022-08-20T23:42:32.046Z,1.40
2022-08-20T23:45:58.699Z,1.10
2022-08-20T23:49:22.369Z,1.10
2022-08-20T23:52:46.043Z,1.50
2022-08-20T23:56:10.894Z,1.20
2022-08-20T23:59:34.391Z,1.07
